Time;durP1;ratioP1;P1;durP2;ratioP2;P2;SDS_P1;SDS_P2;PMS_P1;PMS_P2;Temp;Humidity;BMP_temperature;BMP_pressure;BME280_temperature;BME280_humidity;BME280_pressure;Samples;Min_cycle;Max_cycle;Signal;HPM_P1;HPM_P2
2023/08/25 00:00:09;;;;;;;47.50;43.90;;;;;;;22.77;100.00;100969.22;5002410;28;20096;-90
2023/08/25 00:10:26;;;;;;;48.47;44.65;;;;;;;22.43;100.00;100977.28;5004043;28;20101;-90
2023/08/25 00:13:25;;;;;;;44.38;40.78;;;;;;;22.60;100.00;100971.47;5001833;28;20060;-91
2023/08/25 00:26:40;;;;;;;45.83;42.13;;;;;;;22.24;100.00;100970.88;5006172;28;20530;-90
2023/08/25 00:45:10;;;;;;;49.53;45.58;;;;;;;21.78;100.00;100954.78;5000186;28;20054;-90
2023/08/25 01:04:13;;;;;;;42.13;38.58;;;;;;;21.44;100.00;100942.69;4997529;28;20058;-90
2023/08/25 01:10:35;;;;;;;50.45;46.65;;;;;;;21.49;100.00;100948.09;4997570;28;20054;-90
2023/08/25 01:13:51;;;;;;;48.60;44.65;;;;;;;20.93;100.00;100958.09;5002008;28;20467;-91
2023/08/25 01:23:59;;;;;;;51.58;47.53;;;;;;;21.18;100.00;100935.66;4947342;29;20129;-90
2023/08/25 01:33:15;;;;;;;45.93;42.33;;;;;;;21.22;100.00;100947.56;4997406;28;20056;-90
2023/08/25 01:36:13;;;;;;;49.28;45.47;;;;;;;21.23;100.00;100930.28;5002901;28;20531;-90
2023/08/25 01:39:16;;;;;;;44.67;41.10;;;;;;;21.37;100.00;100944.88;5002062;28;20065;-90
2023/08/25 01:45:53;;;;;;;48.55;44.85;;;;;;;21.31;100.00;100928.94;4992668;28;20047;-91
2023/08/25 01:48:56;;;;;;;54.80;50.70;;;;;;;21.40;100.00;100921.91;4998497;28;20050;-90
2023/08/25 01:51:47;;;;;;;46.05;42.35;;;;;;;21.21;100.00;100932.44;4982878;28;20054;-90
2023/08/25 02:04:07;;;;;;;52.05;48.15;;;;;;;20.96;100.00;100936.75;5009049;28;20081;-90
2023/08/25 02:07:04;;;;;;;52.95;48.65;;;;;;;21.11;100.00;100927.84;4992361;28;20062;-90
2023/08/25 02:10:06;;;;;;;42.33;38.63;;;;;;;20.12;100.00;100935.22;4997710;28;20093;-90
2023/08/25 02:16:29;;;;;;;45.58;42.17;;;;;;;20.85;100.00;100923.53;4998598;28;20042;-90
2023/08/25 02:22:52;;;;;;;46.05;42.35;;;;;;;20.86;100.00;100925.97;4942879;28;20069;-91
2023/08/25 02:29:01;;;;;;;51.67;47.88;;;;;;;20.85;100.00;100929.75;5004887;28;20184;-91
2023/08/25 02:31:55;;;;;;;44.53;40.83;;;;;;;20.70;100.00;100924.34;5006543;28;20053;-90
2023/08/25 02:35:09;;;;;;;40.17;36.97;;;;;;;20.61;100.00;100912.47;5001507;28;20046;-91
2023/08/25 02:44:48;;;;;;;48.20;44.50;;;;;;;20.68;100.00;100927.31;4998692;28;20061;-91
2023/08/25 02:48:17;;;;;;;46.03;42.53;;;;;;;20.44;100.00;100918.88;4998883;28;20059;-90
2023/08/25 02:57:57;;;;;;;33.65;30.85;;;;;;;20.90;100.00;100926.25;4997624;28;20508;-90
2023/08/25 03:01:28;;;;;;;34.10;31.50;;;;;;;20.86;100.00;100925.16;5003478;28;20056;-90
2023/08/25 03:11:03;;;;;;;35.10;32.38;;;;;;;20.43;100.00;100933.44;4961596;28;20062;-90
2023/08/25 03:13:57;;;;;;;37.63;34.63;;;;;;;20.87;100.00;100927.56;4968495;28;20137;-90
2023/08/25 03:17:17;;;;;;;33.88;31.27;;;;;;;20.80;100.00;100933.25;4960630;28;20062;-90
2023/08/25 03:20:29;;;;;;;37.05;33.95;;;;;;;20.78;100.00;100930.00;4961820;28;20051;-90
2023/08/25 03:26:38;;;;;;;35.38;32.67;;;;;;;20.75;100.00;100919.75;4999117;28;20499;-91
2023/08/25 03:29:44;;;;;;;41.67;38.67;;;;;;;20.63;100.00;100923.78;5002379;28;20046;-91
2023/08/25 03:32:40;;;;;;;35.08;32.38;;;;;;;20.46;100.00;100916.72;5019866;28;20521;-91
2023/08/25 03:35:49;;;;;;;33.05;30.50;;;;;;;20.40;100.00;100928.56;5010486;28;20042;-91
2023/08/25 03:45:00;;;;;;;27.42;25.42;;;;;;;20.38;100.00;100943.41;5000728;28;20141;-91
2023/08/25 03:48:21;;;;;;;28.10;26.02;;;;;;;20.36;100.00;100951.75;5005828;28;20111;-91
2023/08/25 03:51:07;;;;;;;30.48;28.38;;;;;;;20.56;100.00;100964.53;4929290;29;20056;-90
2023/08/25 03:57:44;;;;;;;29.23;27.23;;;;;;;20.58;100.00;100943.50;4937570;28;20130;-91
2023/08/25 04:00:56;;;;;;;32.45;30.05;;;;;;;20.62;100.00;100957.25;4986269;28;20046;-90
2023/08/25 04:06:55;;;;;;;;;;;;;;;;;;;;;
2023/08/25 04:09:43;;;;;;;30.80;28.42;;;;;;;20.31;100.00;100967.94;4996688;28;20046;-90
2023/08/25 04:12:37;;;;;;;;;;;;;;;;;;;;;
2023/08/25 04:28:20;;;;;;;30.95;28.90;;;;;;;21.23;100.00;100998.59;5004535;28;20136;-90
2023/08/25 04:34:48;;;;;;;;;;;;;;;;;;;;;
2023/08/25 04:44:47;;;;;;;31.50;29.40;;;;;;;21.20;100.00;101017.25;5001780;28;20125;-90
2023/08/25 04:50:51;;;;;;;29.75;27.95;;;;;;;22.11;100.00;101020.94;4967790;28;20038;-90
2023/08/25 04:57:41;;;;;;;28.75;26.77;;;;;;;22.06;100.00;101029.06;4840106;29;21701;-90
2023/08/25 05:10:03;;;;;;;29.48;27.70;;;;;;;22.54;100.00;101037.56;4932798;29;20063;-91
2023/08/25 05:13:17;;;;;;;33.45;31.45;;;;;;;22.78;100.00;101043.91;4927929;29;20522;-91
2023/08/25 05:15:59;;;;;;;;;;;;;;;22.95;100.00;101043.59;4998826;28;20049;-90
2023/08/25 05:18:48;;;;;;;31.67;29.88;;;;;;;23.12;100.00;101042.38;5001989;28;19979;-90
2023/08/25 05:24:39;;;;;;;25.88;24.27;;;;;;;23.41;100.00;101029.69;5004520;28;20061;-91
2023/08/25 05:27:35;;;;;;;;;;;;;;;;;;;;;
2023/08/25 05:33:24;;;;;;;22.42;21.00;;;;;;;23.78;100.00;101052.69;4997224;28;20054;-90
2023/08/25 05:36:14;;;;;;;23.38;21.98;;;;;;;23.96;100.00;101057.41;5002095;28;20113;-91
2023/08/25 05:39:12;;;;;;;23.33;21.90;;;;;;;24.08;100.00;101059.72;4994135;28;20046;-90
2023/08/25 05:44:52;;;;;;;27.67;25.88;;;;;;;24.18;100.00;101045.25;5003662;28;20069;-90
2023/08/25 05:47:44;;;;;;;26.35;24.55;;;;;;;24.23;100.00;101051.41;4998632;28;20089;-91
2023/08/25 05:50:41;;;;;;;26.83;25.02;;;;;;;24.34;100.00;101043.94;5005905;28;20596;-91
2023/08/25 05:53:11;;;;;;;26.90;25.10;;;;;;;24.38;100.00;101038.75;4999114;28;20520;-91
2023/08/25 05:55:41;;;;;;;24.98;23.38;;;;;;;24.65;100.00;101046.31;4999185;28;20050;-92
2023/08/25 05:58:11;;;;;;;27.05;25.35;;;;;;;24.79;100.00;101040.97;4998470;28;20104;-91
2023/08/25 06:00:38;;;;;;;27.48;25.38;;;;;;;25.06;100.00;101040.28;5000436;28;20112;-92
2023/08/25 06:03:08;;;;;;;25.70;24.00;;;;;;;24.97;100.00;101034.72;4997889;28;20089;-91
2023/08/25 06:05:40;;;;;;;26.45;24.73;;;;;;;24.96;100.00;101024.13;5000849;28;20046;-91
2023/08/25 06:12:20;;;;;;;;;;;;;;;25.15;100.00;101035.03;5057616;27;20103;-88
2023/08/25 06:15:49;;;;;;;25.80;24.00;;;;;;;25.51;100.00;101035.25;5147039;27;20311;-90
2023/08/25 06:18:26;;;;;;;27.42;25.40;;;;;;;25.64;100.00;101029.00;5128806;27;20422;-89
2023/08/25 06:31:41;;;;;;;26.23;24.73;;;;;;;26.21;100.00;101026.88;5065667;28;20052;-91
2023/08/25 06:34:53;;;;;;;;;;;;;;;;;;;;;
2023/08/25 06:41:34;;;;;;;24.38;22.98;;;;;;;26.71;100.00;101032.34;5017062;28;20046;-90
2023/08/25 06:48:07;;;;;;;27.95;26.45;;;;;;;27.17;100.00;101033.22;4965704;28;20950;-90
2023/08/25 06:57:38;;;;;;;21.52;20.33;;;;;;;27.08;100.00;101038.59;4966542;28;20050;-90
2023/08/25 07:00:43;;;;;;;26.88;25.13;;;;;;;27.93;100.00;101041.38;4890714;29;20414;-90
2023/08/25 07:07:51;;;;;;;;;;;;;;;;;;;;;
2023/08/25 07:11:12;;;;;;;;;;;;;;;;;;;;;
2023/08/25 07:20:14;;;;;;;23.13;21.83;;;;;;;28.90;100.00;101026.81;4868524;29;20060;-89
2023/08/25 07:23:10;;;;;;;22.58;21.27;;;;;;;29.08;100.00;101027.59;4929688;29;20059;-90
2023/08/25 07:39:08;;;;;;;24.00;22.60;;;;;;;29.29;100.00;101017.63;5126176;27;20047;-89
2023/08/25 07:48:54;;;;;;;22.45;21.10;;;;;;;30.14;100.00;101022.31;5119256;27;20514;-88
2023/08/25 07:55:32;;;;;;;24.10;22.70;;;;;;;30.06;100.00;101018.47;5130063;27;20046;-88
2023/08/25 07:58:29;;;;;;;21.50;20.20;;;;;;;30.34;100.00;101018.81;5111221;27;20047;-90
2023/08/25 08:04:31;;;;;;;23.55;21.75;;;;;;;30.39;100.00;101008.81;5066572;28;20043;-90
2023/08/25 08:10:35;;;;;;;;;;;;;;;;;;;;;
2023/08/25 08:16:13;;;;;;;26.15;24.75;;;;;;;30.74;100.00;101010.16;5117283;27;20057;-90
2023/08/25 08:18:58;;;;;;;25.65;24.15;;;;;;;31.24;100.00;101003.72;5133205;27;20050;-90
2023/08/25 08:21:50;;;;;;;24.63;23.02;;;;;;;30.46;100.00;101000.84;5133837;27;20050;-90
2023/08/25 08:24:41;;;;;;;;;;;;;;;;;;;;;
2023/08/25 08:27:10;;;;;;;23.90;22.40;;;;;;;30.28;100.00;101009.19;5133407;27;20043;-90
2023/08/25 08:29:37;;;;;;;25.83;24.02;;;;;;;31.53;100.00;101001.19;5132709;27;20123;-91
2023/08/25 08:32:41;;;;;;;22.77;21.38;;;;;;;32.30;100.00;100991.13;5133140;27;20057;-90
2023/08/25 08:41:55;;;;;;;27.95;26.25;;;;;;;32.80;100.00;100978.84;5116779;27;20051;-90
2023/08/25 08:44:55;;;;;;;26.92;25.33;;;;;;;32.85;100.00;100977.78;5130073;27;20134;-90
2023/08/25 08:48:03;;;;;;;;;;;;;;;;;;;;;
2023/08/25 08:50:48;;;;;;;27.27;25.58;;;;;;;32.56;100.00;100978.97;5128321;27;20066;-90
2023/08/25 08:56:48;;;;;;;29.98;28.17;;;;;;;32.78;100.00;100964.66;5097816;27;20051;-90
2023/08/25 08:59:53;;;;;;;;;;;;;;;;;;;;;
2023/08/25 09:02:48;;;;;;;25.60;23.65;;;;;;;32.29;100.00;100970.28;5132501;27;20050;-90
2023/08/25 09:05:49;;;;;;;26.63;24.98;;;;;;;31.33;100.00;100975.41;5115843;27;20530;-90
2023/08/25 09:08:48;;;;;;;25.70;23.80;;;;;;;33.34;100.00;100961.03;5123499;27;20434;-90
2023/08/25 09:14:49;;;;;;;;;;;;;;;;;;;;;
2023/08/25 09:21:07;;;;;;;26.83;25.17;;;;;;;33.81;100.00;100956.69;5126779;27;20517;-90
2023/08/25 09:27:25;;;;;;;25.10;23.60;;;;;;;32.55;100.00;100952.59;5075460;28;20102;-90
2023/08/25 09:30:18;;;;;;;25.92;24.35;;;;;;;33.14;100.00;100957.38;5081673;28;20048;-89
2023/08/25 09:32:48;;;;;;;23.48;22.00;;;;;;;32.34;100.00;100937.06;5076605;28;20110;-90
2023/08/25 09:35:22;;;;;;;26.52;25.02;;;;;;;33.36;100.00;100938.66;5087480;28;20047;-90
2023/08/25 09:38:21;;;;;;;26.60;25.10;;;;;;;33.73;100.00;100941.94;5132005;27;20043;-88
2023/08/25 09:41:28;;;;;;;29.83;28.13;;;;;;;33.11;100.00;100935.28;5130345;27;20131;-90
2023/08/25 09:44:49;;;;;;;27.48;25.98;;;;;;;34.55;100.00;100927.22;5132344;27;20051;-90
2023/08/25 09:47:44;;;;;;;23.40;22.00;;;;;;;33.26;100.00;100924.28;5130068;27;20051;-90
2023/08/25 09:50:35;;;;;;;23.08;21.67;;;;;;;33.56;100.00;100918.34;5123838;27;20130;-90
2023/08/25 09:56:20;;;;;;;25.95;24.45;;;;;;;32.26;100.00;100910.53;5118170;27;20051;-90
2023/08/25 10:08:53;;;;;;;24.70;23.10;;;;;;;34.16;100.00;100904.34;5088343;28;20134;-90
2023/08/25 10:12:01;;;;;;;24.10;22.70;;;;;;;34.52;100.00;100896.78;5121701;28;20044;-90
2023/08/25 10:14:56;;;;;;;25.00;23.50;;;;;;;36.54;100.00;100907.84;5112137;28;20652;-90
2023/08/25 10:17:41;;;;;;;24.35;22.85;;;;;;;35.78;100.00;100900.53;5128170;28;20055;-91
2023/08/25 10:20:37;;;;;;;24.10;22.60;;;;;;;35.06;100.00;100906.88;5128508;28;20043;-91
2023/08/25 10:23:52;;;;;;;24.75;23.25;;;;;;;34.39;100.00;100907.97;5115007;28;20507;-90
2023/08/25 10:27:00;;;;;;;28.88;27.17;;;;;;;33.94;100.00;100905.81;5120196;28;20138;-89
2023/08/25 10:29:52;;;;;;;27.90;26.30;;;;;;;33.83;100.00;100897.34;5128473;28;20050;-90
2023/08/25 10:33:15;;;;;;;27.27;25.67;;;;;;;34.21;100.00;100901.28;5125748;28;20082;-90
2023/08/25 10:36:13;;;;;;;25.30;23.80;;;;;;;33.35;100.00;100898.53;5131885;28;20054;-89
2023/08/25 10:39:10;;;;;;;29.60;27.80;;;;;;;35.87;100.00;100895.53;5126111;28;20043;-90
2023/08/25 10:45:48;;;;;;;28.77;27.17;;;;;;;35.12;100.00;100893.59;5008011;28;20140;-90
2023/08/25 10:48:40;;;;;;;29.48;27.88;;;;;;;35.59;100.00;100878.59;5063359;28;20061;-90
2023/08/25 10:51:29;;;;;;;30.25;28.52;;;;;;;35.79;100.00;100868.97;5132320;28;20055;-90
2023/08/25 10:54:22;;;;;;;24.98;23.58;;;;;;;35.70;100.00;100869.25;5133232;27;20460;-90
2023/08/25 10:58:00;;;;;;;;;;;;;;;;;;;;;
2023/08/25 11:00:59;;;;;;;25.55;24.05;;;;;;;36.13;100.00;100867.09;5123812;27;20502;-90
2023/08/25 11:04:12;;;;;;;29.95;28.15;;;;;;;34.72;100.00;100867.25;5134616;27;20058;-90
2023/08/25 11:09:53;;;;;;;29.23;27.42;;;;;;;34.27;100.00;100864.03;5089928;28;20080;-89
2023/08/25 11:15:40;;;;;;;32.92;31.00;;;;;;;35.75;100.00;100848.81;5087027;28;20059;-88
2023/08/25 11:18:41;;;;;;;30.73;28.92;;;;;;;37.74;100.00;100848.34;5093978;28;20044;-89
2023/08/25 11:21:21;;;;;;;34.15;32.10;;;;;;;37.77;100.00;100844.81;5091204;28;20519;-90
2023/08/25 11:24:36;;;;;;;34.00;31.95;;;;;;;37.08;100.00;100840.00;5093925;28;20432;-89
2023/08/25 11:27:50;;;;;;;;;;;;;;;;;;;;;
2023/08/25 11:33:41;;;;;;;30.38;28.58;;;;;;;36.13;100.00;100835.88;5040559;28;20049;-91
2023/08/25 11:44:58;;;;;;;40.47;38.07;;;;;;;38.32;99.46;100824.41;5089749;28;20242;-89
2023/08/25 11:47:25;;;;;;;45.28;42.58;;;;;;;38.59;94.41;100822.09;5090631;28;20347;-90
2023/08/25 11:50:25;;;;;;;43.67;41.08;;;;;;;38.88;94.13;100822.91;5093239;28;20519;-90
2023/08/25 11:53:25;;;;;;;43.42;40.92;;;;;;;35.59;100.00;100818.63;5070946;28;20064;-90
2023/08/25 11:56:27;;;;;;;43.63;41.08;;;;;;;34.87;100.00;100823.00;5093637;28;20062;-90
2023/08/25 11:59:16;;;;;;;42.25;39.85;;;;;;;34.80;100.00;100817.38;5093002;28;20497;-89
2023/08/25 12:08:16;;;;;;;40.50;38.10;;;;;;;36.37;100.00;100809.66;5104366;27;20482;-90
2023/08/25 12:11:11;;;;;;;38.88;36.53;;;;;;;36.84;100.00;100810.91;5133044;27;20043;-90
2023/08/25 12:14:23;;;;;;;39.92;37.53;;;;;;;34.96;100.00;100805.41;5125778;27;20073;-89
2023/08/25 12:17:26;;;;;;;37.92;35.53;;;;;;;35.69;100.00;100806.91;5124801;27;20138;-90
2023/08/25 12:20:22;;;;;;;37.13;34.92;;;;;;;35.49;100.00;100800.69;5133323;27;20156;-90
2023/08/25 12:23:00;;;;;;;37.00;34.70;;;;;;;37.22;100.00;100815.19;5108695;27;20057;-90
2023/08/25 12:25:45;;;;;;;34.33;32.17;;;;;;;38.10;98.09;100804.97;5132957;27;20069;-91
2023/08/25 12:37:32;;;;;;;35.38;33.33;;;;;;;38.21;92.08;100793.88;5132514;27;20143;-90
2023/08/25 12:46:08;;;;;;;33.05;30.95;;;;;;;37.86;96.66;100802.88;5100989;27;20129;-90
2023/08/25 12:49:09;;;;;;;31.98;29.98;;;;;;;37.75;93.37;100794.50;5132877;27;20408;-90
2023/08/25 12:51:55;;;;;;;32.15;30.15;;;;;;;36.25;100.00;100791.38;5124754;27;20055;-91
2023/08/25 12:54:40;;;;;;;28.88;26.98;;;;;;;34.97;100.00;100788.47;5132566;27;20050;-90
2023/08/25 13:00:54;;;;;;;28.08;26.42;;;;;;;36.16;100.00;100788.94;5132432;27;20419;-91
2023/08/25 13:03:58;;;;;;;;;;;;;;;;;;;;;
2023/08/25 13:06:52;;;;;;;29.40;27.60;;;;;;;35.09;100.00;100777.25;5132644;27;20047;-91
2023/08/25 13:10:00;;;;;;;26.33;24.63;;;;;;;35.47;100.00;100785.69;5086767;27;20051;-90
2023/08/25 13:13:04;;;;;;;27.45;25.65;;;;;;;37.22;99.07;100779.19;5131945;27;20057;-90
2023/08/25 13:16:14;;;;;;;28.65;26.85;;;;;;;36.71;100.00;100777.22;5130902;27;20499;-90
2023/08/25 13:22:33;;;;;;;29.90;28.00;;;;;;;37.62;93.77;100762.81;5110454;28;20052;-91
2023/08/25 13:31:13;;;;;;;31.00;29.20;;;;;;;38.09;90.22;100759.00;5104404;27;20051;-90
2023/08/25 13:33:50;;;;;;;30.88;28.98;;;;;;;37.32;94.75;100744.44;5132823;27;20491;-90
2023/08/25 13:39:56;;;;;;;31.95;30.25;;;;;;;36.78;98.93;100744.06;5128126;27;20121;-90
2023/08/25 13:42:42;;;;;;;31.70;30.00;;;;;;;37.64;91.40;100736.28;5130998;27;20054;-90
2023/08/25 13:45:39;;;;;;;31.42;29.73;;;;;;;36.56;96.92;100740.34;5132315;27;20583;-90
2023/08/25 13:51:38;;;;;;;;;;;;;;;;;;;;;
2023/08/25 13:54:17;;;;;;;;;;;;;;;;;;;;;
2023/08/25 13:57:03;;;;;;;30.10;28.40;;;;;;;37.27;100.00;100733.72;5132477;27;20043;-90
2023/08/25 13:59:57;;;;;;;29.75;28.02;;;;;;;38.12;89.26;100733.25;5129593;27;20058;-90
2023/08/25 14:03:27;;;;;;;;;;;;;;;;;;;;;
2023/08/25 14:06:16;;;;;;;33.72;31.73;;;;;;;37.06;96.32;100735.19;5128936;27;20051;-90
2023/08/25 14:08:54;;;;;;;33.30;31.40;;;;;;;37.88;91.22;100728.44;5129944;28;20058;-90
2023/08/25 14:11:36;;;;;;;36.15;34.10;;;;;;;37.44;96.72;100718.38;5131494;28;20047;-90
2023/08/25 14:20:52;;;;;;;33.80;31.90;;;;;;;37.28;93.07;100729.75;5129129;28;20125;-90
2023/08/25 14:30:02;;;;;;;33.92;31.92;;;;;;;35.98;96.55;100727.91;5067915;28;20559;-91
2023/08/25 14:32:52;;;;;;;;;;;;;;;;;;;;;
2023/08/25 14:35:36;;;;;;;31.38;29.48;;;;;;;35.70;95.33;100720.09;5070772;28;20064;-90
2023/08/25 14:38:39;;;;;;;26.70;24.92;;;;;;;34.74;100.00;100714.03;5072494;28;20068;-90
2023/08/25 14:41:38;;;;;;;29.55;27.65;;;;;;;34.98;100.00;100718.34;5064918;28;20056;-90
2023/08/25 14:44:31;;;;;;;29.95;28.05;;;;;;;35.30;100.00;100729.03;5104337;27;20065;-90
2023/08/25 14:50:26;;;;;;;41.03;38.65;;;;;;;36.00;100.00;100733.06;5106835;27;20134;-90
2023/08/25 14:53:23;;;;;;;46.25;43.65;;;;;;;35.76;100.00;100726.09;5110903;27;20218;-90
2023/08/25 14:59:03;;;;;;;28.30;26.50;;;;;;;35.50;100.00;100733.25;5131210;27;20055;-90
2023/08/25 15:01:51;;;;;;;27.65;25.95;;;;;;;35.06;100.00;100728.31;5132052;27;20051;-90
2023/08/25 15:04:44;;;;;;;29.85;28.15;;;;;;;35.67;100.00;100726.38;5135142;27;20055;-90
2023/08/25 15:07:52;;;;;;;31.65;29.85;;;;;;;35.18;100.00;100743.88;5134456;27;20047;-90
2023/08/25 15:10:43;;;;;;;31.35;29.45;;;;;;;34.50;100.00;100739.22;5104652;27;20530;-90
2023/08/25 15:13:35;;;;;;;31.35;29.55;;;;;;;35.52;100.00;100749.44;5131163;27;20047;-90
2023/08/25 15:16:30;;;;;;;34.28;32.28;;;;;;;35.77;100.00;100733.22;5124529;27;20558;-90
2023/08/25 15:19:27;;;;;;;;;;;;;;;;;;;;;
2023/08/25 15:31:36;;;;;;;29.70;27.90;;;;;;;35.27;100.00;100730.56;5126156;27;20051;-90
2023/08/25 15:34:18;;;;;;;28.77;27.08;;;;;;;35.14;100.00;100723.72;5097692;27;20130;-90
2023/08/25 15:43:22;;;;;;;29.23;27.42;;;;;;;34.23;100.00;100719.06;5068850;27;20057;-89
2023/08/25 15:46:04;;;;;;;41.85;39.35;;;;;;;34.15;100.00;100721.66;5134738;27;20051;-90
2023/08/25 15:51:56;;;;;;;38.45;36.25;;;;;;;34.51;100.00;100727.81;5133933;27;20090;-90
2023/08/25 15:55:00;;;;;;;32.63;30.73;;;;;;;34.50;100.00;100728.19;5133690;27;20533;-90
2023/08/25 15:58:06;;;;;;;29.73;27.92;;;;;;;34.41;100.00;100734.75;5119614;27;20054;-90
2023/08/25 16:01:02;;;;;;;29.42;27.73;;;;;;;34.00;100.00;100725.28;5087476;27;20058;-90
2023/08/25 16:03:43;;;;;;;32.33;30.42;;;;;;;33.96;100.00;100728.00;5133863;27;20054;-89
2023/08/25 16:06:29;;;;;;;32.35;30.45;;;;;;;33.91;100.00;100731.03;5134920;27;20057;-90
2023/08/25 16:09:21;;;;;;;;;;;;;;;;;;;;;
2023/08/25 16:12:22;;;;;;;31.35;29.45;;;;;;;33.74;100.00;100723.25;5133599;27;20043;-90
2023/08/25 16:15:38;;;;;;;;;;;;;;;;;;;;;
2023/08/25 16:18:21;;;;;;;27.58;25.77;;;;;;;32.73;100.00;100717.44;5134323;27;20499;-90
2023/08/25 16:21:18;;;;;;;24.45;22.85;;;;;;;32.95;100.00;100721.50;5132123;27;20415;-90
2023/08/25 16:27:09;;;;;;;27.25;25.55;;;;;;;32.36;100.00;100730.63;5122454;27;20055;-90
2023/08/25 16:29:53;;;;;;;24.58;22.98;;;;;;;32.25;100.00;100724.84;5133061;27;20044;-90
2023/08/25 16:33:02;;;;;;;25.75;24.17;;;;;;;31.65;100.00;100726.69;5129383;27;20073;-90
2023/08/25 16:36:12;;;;;;;26.42;24.73;;;;;;;31.79;100.00;100734.53;5124048;27;20047;-90
2023/08/25 16:39:14;;;;;;;24.10;22.50;;;;;;;31.39;100.00;100725.19;5115675;27;20051;-90
2023/08/25 16:54:49;;;;;;;26.27;24.58;;;;;;;30.62;100.00;100727.78;5006997;28;20146;-90
2023/08/25 17:00:50;;;;;;;35.45;33.15;;;;;;;29.64;100.00;100724.75;5122952;27;20050;-91
2023/08/25 17:06:38;;;;;;;28.05;26.25;;;;;;;29.80;100.00;100736.66;5132513;27;20051;-90
2023/08/25 17:09:16;;;;;;;24.75;23.25;;;;;;;29.85;100.00;100731.00;5132369;27;20057;-90
2023/08/25 17:12:06;;;;;;;26.10;24.50;;;;;;;29.66;100.00;100736.16;5132892;27;20054;-90
2023/08/25 17:15:15;;;;;;;27.10;25.50;;;;;;;29.62;100.00;100737.94;5132515;27;20443;-90
2023/08/25 17:18:09;;;;;;;26.65;25.17;;;;;;;29.45;100.00;100734.19;5128590;27;20488;-90
2023/08/25 17:21:11;;;;;;;29.20;27.60;;;;;;;29.20;100.00;100737.91;5129947;27;20468;-90
2023/08/25 17:23:50;;;;;;;28.85;27.25;;;;;;;29.06;100.00;100751.00;5132104;27;20458;-90
2023/08/25 17:26:45;;;;;;;29.33;27.80;;;;;;;29.00;100.00;100751.16;5125170;27;20043;-91
2023/08/25 17:29:41;;;;;;;33.45;31.65;;;;;;;28.73;100.00;100748.88;5132537;27;20047;-90
2023/08/25 17:32:37;;;;;;;31.92;30.13;;;;;;;28.51;100.00;100744.47;5131725;27;20047;-90
2023/08/25 17:35:28;;;;;;;34.28;32.47;;;;;;;28.21;100.00;100746.28;5109570;27;20047;-90
2023/08/25 17:38:11;;;;;;;32.33;30.42;;;;;;;28.21;100.00;100751.72;5128992;27;20043;-90
2023/08/25 17:41:01;;;;;;;32.55;30.75;;;;;;;28.25;100.00;100747.22;5130114;27;20054;-90
2023/08/25 17:43:51;;;;;;;29.50;27.75;;;;;;;28.20;100.00;100761.84;5132593;27;20053;-90
2023/08/25 17:46:58;;;;;;;;;;;;;;;;;;;;;
2023/08/25 17:50:05;;;;;;;30.98;29.23;;;;;;;27.67;100.00;100773.06;5127393;27;20043;-90
2023/08/25 17:53:36;;;;;;;;;;;;;;;;;;;;;
2023/08/25 18:07:22;;;;;;;49.28;46.88;;;;;;;27.25;100.00;100789.81;5068529;28;20592;-90
2023/08/25 18:13:24;;;;;;;37.15;35.15;;;;;;;26.89;100.00;100779.88;5131712;28;20047;-90
2023/08/25 18:25:53;;;;;;;;;;;;;;;;;;;;;
2023/08/25 18:32:28;;;;;;;34.58;32.58;;;;;;;26.53;100.00;100784.66;5125809;28;20072;-89
2023/08/25 18:38:42;;;;;;;;;;;;;;;26.16;100.00;100794.81;5105272;28;20040;-89
2023/08/25 18:41:29;;;;;;;34.78;32.67;;;;;;;26.09;100.00;100802.59;5119984;28;19919;-90
2023/08/25 18:44:54;;;;;;;41.35;38.15;;;;;;;25.83;100.00;100799.66;5125034;28;20442;-91
2023/08/25 18:47:57;;;;;;;29.42;27.52;;;;;;;26.10;100.00;100796.03;5103097;28;20051;-89
2023/08/25 18:50:47;;;;;;;31.95;29.95;;;;;;;25.57;100.00;100816.50;5027293;28;20046;-90
2023/08/25 18:59:16;;;;;;;29.65;27.75;;;;;;;25.74;100.00;100800.34;5127044;28;20054;-90
2023/08/25 19:02:12;;;;;;;30.48;28.58;;;;;;;25.68;100.00;100806.19;5130846;28;20058;-90
2023/08/25 19:05:05;;;;;;;36.97;34.58;;;;;;;25.65;100.00;100806.81;5131078;28;20104;-89
2023/08/25 19:08:12;;;;;;;31.08;28.98;;;;;;;25.44;100.00;100799.06;5129795;28;20058;-90
2023/08/25 19:10:59;;;;;;;30.60;28.70;;;;;;;25.55;100.00;100816.00;5126483;28;20047;-90
2023/08/25 19:13:49;;;;;;;29.70;27.70;;;;;;;25.49;100.00;100807.13;5131562;27;20073;-89
2023/08/25 19:16:35;;;;;;;29.67;27.67;;;;;;;25.52;100.00;100814.69;5125648;27;20071;-89
2023/08/25 19:19:13;;;;;;;27.95;25.95;;;;;;;25.28;100.00;100814.91;5125664;27;20039;-89
2023/08/25 19:21:58;;;;;;;30.17;28.33;;;;;;;24.81;100.00;100816.84;5134992;27;20047;-91
2023/08/25 19:24:31;;;;;;;29.38;27.50;;;;;;;25.40;100.00;100819.03;5134910;27;20051;-90
2023/08/25 19:30:36;;;;;;;38.95;36.55;;;;;;;25.04;100.00;100811.53;5121180;27;20059;-90
2023/08/25 19:33:35;;;;;;;34.80;32.70;;;;;;;25.12;100.00;100808.94;5055839;27;20060;-89
2023/08/25 19:45:39;;;;;;;33.63;31.42;;;;;;;24.82;100.00;100815.75;5114984;27;20058;-90
2023/08/25 19:51:38;;;;;;;37.88;35.58;;;;;;;25.02;100.00;100811.81;5121850;27;20162;-89
2023/08/25 20:00:49;;;;;;;44.42;41.63;;;;;;;24.34;100.00;100815.16;5076750;27;20039;-90
2023/08/25 20:03:48;;;;;;;36.72;34.42;;;;;;;24.35;100.00;100808.63;5128452;27;20047;-90
2023/08/25 20:06:37;;;;;;;38.63;36.22;;;;;;;24.42;100.00;100823.47;5134242;27;20051;-90
2023/08/25 20:09:38;;;;;;;31.23;29.13;;;;;;;24.40;100.00;100819.41;5133970;27;20047;-90
2023/08/25 20:15:53;;;;;;;25.20;23.50;;;;;;;24.40;100.00;100824.84;5133134;27;20051;-90
2023/08/25 20:18:42;;;;;;;30.48;28.33;;;;;;;24.10;100.00;100828.81;5128339;27;20542;-90
2023/08/25 20:21:35;;;;;;;29.77;27.90;;;;;;;24.25;100.00;100830.50;5130775;27;20043;-89
2023/08/25 20:24:02;;;;;;;35.55;33.25;;;;;;;23.91;100.00;100828.84;5134019;27;20518;-89
2023/08/25 20:26:29;;;;;;;29.90;27.80;;;;;;;23.77;100.00;100820.59;5134138;27;20095;-90
2023/08/25 20:33:03;;;;;;;30.42;28.33;;;;;;;23.96;100.00;100831.44;5115174;27;20058;-90
2023/08/25 20:35:57;;;;;;;38.20;36.00;;;;;;;23.50;100.00;100840.16;5123654;27;20066;-90
2023/08/25 20:38:47;;;;;;;38.70;36.50;;;;;;;23.77;100.00;100832.25;5125450;27;20051;-89
2023/08/25 20:47:44;;;;;;;41.15;38.90;;;;;;;23.82;100.00;100838.72;5117801;27;20043;-90
2023/08/25 20:50:32;;;;;;;34.22;32.22;;;;;;;24.06;100.00;100836.75;5131057;27;20046;-90
2023/08/25 20:53:28;;;;;;;37.03;34.92;;;;;;;23.85;100.00;100838.13;5116401;27;20130;-90
2023/08/25 20:55:55;;;;;;;32.55;30.65;;;;;;;23.81;100.00;100832.47;5133780;27;20047;-90
2023/08/25 20:58:51;;;;;;;38.80;36.50;;;;;;;23.61;100.00;100828.09;5133665;27;20079;-90
2023/08/25 21:06:57;;;;;;;49.65;46.75;;;;;;;23.69;100.00;100832.06;5131721;27;20055;-90
2023/08/25 21:09:32;;;;;;;26.08;24.38;;;;;;;23.91;100.00;100835.06;5133203;27;20061;-90
2023/08/25 21:12:03;;;;;;;43.38;40.72;;;;;;;23.89;100.00;100839.16;5128706;27;20047;-89
2023/08/25 21:14:33;;;;;;;45.22;42.58;;;;;;;23.48;100.00;100853.19;5133616;27;20142;-89
2023/08/25 21:17:00;;;;;;;45.00;42.30;;;;;;;23.70;100.00;100853.50;5133112;27;20050;-90
2023/08/25 21:19:28;;;;;;;33.78;31.67;;;;;;;23.13;100.00;100841.66;5132475;27;20054;-89
2023/08/25 21:21:59;;;;;;;34.90;32.80;;;;;;;23.40;100.00;100848.41;5134258;27;20057;-90
2023/08/25 21:24:27;;;;;;;35.97;33.80;;;;;;;23.71;100.00;100835.31;5133355;27;20047;-89
2023/08/25 21:26:54;;;;;;;31.65;29.55;;;;;;;23.77;100.00;100845.00;5134837;27;20100;-90
2023/08/25 21:29:22;;;;;;;32.22;30.23;;;;;;;23.77;100.00;100842.28;5135458;27;20075;-89
2023/08/25 21:31:49;;;;;;;40.50;38.30;;;;;;;23.75;100.00;100841.75;5132195;27;20591;-89
2023/08/25 21:34:20;;;;;;;35.13;33.13;;;;;;;23.80;100.00;100847.13;5128178;27;20055;-89